sensor_id;sensor_type;location;lat;lon;timestamp;P1;durP1;ratioP1;P2;durP2;ratioP2
42666;SDS011;28280;49.646;14.130;2023-03-12T00:09:06;5.63;;;2.47;;
42666;SDS011;28280;49.646;14.130;2023-03-12T00:19:29;5.70;;;2.35;;
42666;SDS011;28280;49.646;14.130;2023-03-12T00:29:50;4.03;;;2.00;;
42666;SDS011;28280;49.646;14.130;2023-03-12T00:40:11;3.55;;;1.73;;
42666;SDS011;28280;49.646;14.130;2023-03-12T00:50:33;4.38;;;2.00;;
42666;SDS011;28280;49.646;14.130;2023-03-12T01:00:54;5.13;;;1.95;;
42666;SDS011;28280;49.646;14.130;2023-03-12T01:11:16;4.40;;;2.35;;
42666;SDS011;28280;49.646;14.130;2023-03-12T01:21:38;3.72;;;2.42;;
42666;SDS011;28280;49.646;14.130;2023-03-12T01:31:59;5.00;;;1.90;;
42666;SDS011;28280;49.646;14.130;2023-03-12T01:42:21;4.70;;;2.38;;
42666;SDS011;28280;49.646;14.130;2023-03-12T01:52:42;5.95;;;2.78;;
42666;SDS011;28280;49.646;14.130;2023-03-12T02:03:05;3.55;;;1.98;;
42666;SDS011;28280;49.646;14.130;2023-03-12T02:13:29;5.38;;;1.98;;
42666;SDS011;28280;49.646;14.130;2023-03-12T02:23:55;6.53;;;2.45;;
42666;SDS011;28280;49.646;14.130;2023-03-12T02:34:25;5.03;;;2.15;;
42666;SDS011;28280;49.646;14.130;2023-03-12T02:44:46;3.97;;;2.22;;
42666;SDS011;28280;49.646;14.130;2023-03-12T02:55:09;3.75;;;2.25;;
42666;SDS011;28280;49.646;14.130;2023-03-12T03:05:31;6.65;;;2.55;;
42666;SDS011;28280;49.646;14.130;2023-03-12T03:15:52;5.38;;;2.22;;
42666;SDS011;28280;49.646;14.130;2023-03-12T03:26:15;5.50;;;2.13;;
42666;SDS011;28280;49.646;14.130;2023-03-12T03:36:39;3.40;;;2.00;;
42666;SDS011;28280;49.646;14.130;2023-03-12T03:47:05;4.35;;;2.15;;
42666;SDS011;28280;49.646;14.130;2023-03-12T03:57:26;2.75;;;1.80;;
42666;SDS011;28280;49.646;14.130;2023-03-12T04:07:50;4.30;;;1.75;;
42666;SDS011;28280;49.646;14.130;2023-03-12T04:18:14;2.97;;;1.70;;
42666;SDS011;28280;49.646;14.130;2023-03-12T04:28:37;4.28;;;2.05;;
42666;SDS011;28280;49.646;14.130;2023-03-12T04:39:00;3.60;;;2.30;;
42666;SDS011;28280;49.646;14.130;2023-03-12T04:49:26;5.35;;;2.40;;
42666;SDS011;28280;49.646;14.130;2023-03-12T04:59:47;5.03;;;2.55;;
42666;SDS011;28280;49.646;14.130;2023-03-12T05:10:09;5.70;;;2.45;;
42666;SDS011;28280;49.646;14.130;2023-03-12T05:31:22;5.05;;;2.08;;
42666;SDS011;28280;49.646;14.130;2023-03-12T05:41:44;3.17;;;2.00;;
42666;SDS011;28280;49.646;14.130;2023-03-12T05:52:10;5.72;;;2.20;;
42666;SDS011;28280;49.646;14.130;2023-03-12T06:02:32;3.80;;;2.20;;
42666;SDS011;28280;49.646;14.130;2023-03-12T06:12:53;5.57;;;2.70;;
42666;SDS011;28280;49.646;14.130;2023-03-12T06:23:15;6.05;;;2.70;;
42666;SDS011;28280;49.646;14.130;2023-03-12T06:33:36;5.57;;;2.63;;
42666;SDS011;28280;49.646;14.130;2023-03-12T06:43:58;5.22;;;2.58;;
42666;SDS011;28280;49.646;14.130;2023-03-12T06:54:20;5.47;;;2.58;;
42666;SDS011;28280;49.646;14.130;2023-03-12T07:04:41;5.75;;;2.13;;
42666;SDS011;28280;49.646;14.130;2023-03-12T07:15:03;5.47;;;2.55;;
42666;SDS011;28280;49.646;14.130;2023-03-12T07:25:24;5.07;;;2.60;;
42666;SDS011;28280;49.646;14.130;2023-03-12T07:35:46;3.85;;;2.28;;
42666;SDS011;28280;49.646;14.130;2023-03-12T07:46:11;4.90;;;2.47;;
42666;SDS011;28280;49.646;14.130;2023-03-12T07:56:32;5.30;;;2.45;;
42666;SDS011;28280;49.646;14.130;2023-03-12T08:06:55;4.70;;;2.22;;
42666;SDS011;28280;49.646;14.130;2023-03-12T08:17:16;6.20;;;2.17;;
42666;SDS011;28280;49.646;14.130;2023-03-12T08:27:37;4.30;;;2.00;;
42666;SDS011;28280;49.646;14.130;2023-03-12T08:37:59;3.90;;;2.17;;
42666;SDS011;28280;49.646;14.130;2023-03-12T08:48:21;4.45;;;2.28;;
42666;SDS011;28280;49.646;14.130;2023-03-12T08:58:42;4.40;;;1.63;;
42666;SDS011;28280;49.646;14.130;2023-03-12T09:09:04;3.78;;;1.52;;
42666;SDS011;28280;49.646;14.130;2023-03-12T09:19:25;3.45;;;1.67;;
42666;SDS011;28280;49.646;14.130;2023-03-12T09:29:46;3.42;;;1.58;;
42666;SDS011;28280;49.646;14.130;2023-03-12T09:40:21;4.55;;;1.85;;
42666;SDS011;28280;49.646;14.130;2023-03-12T09:50:45;3.20;;;1.60;;
42666;SDS011;28280;49.646;14.130;2023-03-12T10:12:23;3.38;;;1.65;;
42666;SDS011;28280;49.646;14.130;2023-03-12T10:22:43;5.15;;;2.05;;
42666;SDS011;28280;49.646;14.130;2023-03-12T10:33:12;3.75;;;1.67;;
42666;SDS011;28280;49.646;14.130;2023-03-12T10:43:36;2.80;;;1.67;;
42666;SDS011;28280;49.646;14.130;2023-03-12T10:53:57;2.50;;;1.55;;
42666;SDS011;28280;49.646;14.130;2023-03-12T11:04:28;2.78;;;1.52;;
42666;SDS011;28280;49.646;14.130;2023-03-12T11:14:51;3.55;;;1.50;;
42666;SDS011;28280;49.646;14.130;2023-03-12T11:25:27;4.88;;;1.65;;
42666;SDS011;28280;49.646;14.130;2023-03-12T11:57:02;3.55;;;1.80;;
42666;SDS011;28280;49.646;14.130;2023-03-12T12:39:25;3.30;;;1.63;;
42666;SDS011;28280;49.646;14.130;2023-03-12T12:49:58;4.60;;;1.80;;
42666;SDS011;28280;49.646;14.130;2023-03-12T13:33:04;2.72;;;1.60;;
42666;SDS011;28280;49.646;14.130;2023-03-12T13:54:00;5.28;;;1.77;;
42666;SDS011;28280;49.646;14.130;2023-03-12T14:04:24;3.88;;;1.52;;
42666;SDS011;28280;49.646;14.130;2023-03-12T14:14:54;2.40;;;1.38;;
42666;SDS011;28280;49.646;14.130;2023-03-12T14:46:34;3.63;;;1.70;;
42666;SDS011;28280;49.646;14.130;2023-03-12T14:56:56;3.45;;;1.90;;
42666;SDS011;28280;49.646;14.130;2023-03-12T15:07:21;3.83;;;1.85;;
42666;SDS011;28280;49.646;14.130;2023-03-12T15:17:53;7.20;;;1.85;;
42666;SDS011;28280;49.646;14.130;2023-03-12T15:38:42;3.53;;;1.60;;
42666;SDS011;28280;49.646;14.130;2023-03-12T15:49:26;3.97;;;1.70;;
42666;SDS011;28280;49.646;14.130;2023-03-12T16:10:31;2.88;;;1.60;;
42666;SDS011;28280;49.646;14.130;2023-03-12T16:20:54;3.38;;;2.20;;
42666;SDS011;28280;49.646;14.130;2023-03-12T16:31:16;3.38;;;1.75;;
42666;SDS011;28280;49.646;14.130;2023-03-12T16:41:37;3.55;;;1.80;;
42666;SDS011;28280;49.646;14.130;2023-03-12T16:51:58;3.50;;;1.80;;
42666;SDS011;28280;49.646;14.130;2023-03-12T17:02:20;2.63;;;1.60;;
42666;SDS011;28280;49.646;14.130;2023-03-12T17:12:42;3.85;;;1.90;;
42666;SDS011;28280;49.646;14.130;2023-03-12T17:23:04;3.10;;;1.75;;
42666;SDS011;28280;49.646;14.130;2023-03-12T17:33:25;2.88;;;1.58;;
42666;SDS011;28280;49.646;14.130;2023-03-12T17:43:47;3.53;;;1.88;;
42666;SDS011;28280;49.646;14.130;2023-03-12T17:54:08;4.70;;;1.83;;
42666;SDS011;28280;49.646;14.130;2023-03-12T18:04:29;3.45;;;1.88;;
42666;SDS011;28280;49.646;14.130;2023-03-12T18:14:50;2.72;;;1.92;;
42666;SDS011;28280;49.646;14.130;2023-03-12T18:25:12;2.17;;;1.60;;
42666;SDS011;28280;49.646;14.130;2023-03-12T18:35:33;2.97;;;1.60;;
42666;SDS011;28280;49.646;14.130;2023-03-12T18:45:54;3.10;;;1.63;;
42666;SDS011;28280;49.646;14.130;2023-03-12T18:56:16;3.80;;;1.77;;
42666;SDS011;28280;49.646;14.130;2023-03-12T19:06:36;1.85;;;1.40;;
42666;SDS011;28280;49.646;14.130;2023-03-12T19:17:11;3.75;;;1.73;;
42666;SDS011;28280;49.646;14.130;2023-03-12T19:27:32;2.45;;;1.63;;
42666;SDS011;28280;49.646;14.130;2023-03-12T19:37:53;3.13;;;1.52;;
42666;SDS011;28280;49.646;14.130;2023-03-12T19:48:15;2.95;;;1.80;;
42666;SDS011;28280;49.646;14.130;2023-03-12T19:58:36;3.08;;;1.80;;
42666;SDS011;28280;49.646;14.130;2023-03-12T20:08:58;3.05;;;1.77;;
42666;SDS011;28280;49.646;14.130;2023-03-12T20:19:19;2.83;;;1.60;;
42666;SDS011;28280;49.646;14.130;2023-03-12T20:29:40;3.78;;;1.77;;
42666;SDS011;28280;49.646;14.130;2023-03-12T20:40:03;3.33;;;1.95;;
42666;SDS011;28280;49.646;14.130;2023-03-12T20:50:25;3.60;;;2.45;;
42666;SDS011;28280;49.646;14.130;2023-03-12T21:00:47;3.35;;;2.00;;
42666;SDS011;28280;49.646;14.130;2023-03-12T21:11:09;2.88;;;1.75;;
42666;SDS011;28280;49.646;14.130;2023-03-12T21:21:30;4.80;;;2.05;;
42666;SDS011;28280;49.646;14.130;2023-03-12T21:31:55;3.72;;;2.33;;
42666;SDS011;28280;49.646;14.130;2023-03-12T21:42:17;3.60;;;2.03;;
42666;SDS011;28280;49.646;14.130;2023-03-12T21:52:39;4.40;;;2.60;;
42666;SDS011;28280;49.646;14.130;2023-03-12T22:03:03;6.18;;;2.70;;
42666;SDS011;28280;49.646;14.130;2023-03-12T22:13:24;5.22;;;2.92;;
42666;SDS011;28280;49.646;14.130;2023-03-12T22:23:46;4.85;;;3.08;;
42666;SDS011;28280;49.646;14.130;2023-03-12T22:34:10;7.10;;;2.88;;
42666;SDS011;28280;49.646;14.130;2023-03-12T22:44:32;5.70;;;3.22;;
42666;SDS011;28280;49.646;14.130;2023-03-12T22:54:53;4.68;;;2.85;;
42666;SDS011;28280;49.646;14.130;2023-03-12T23:05:14;4.55;;;2.80;;
42666;SDS011;28280;49.646;14.130;2023-03-12T23:15:36;5.57;;;2.92;;
42666;SDS011;28280;49.646;14.130;2023-03-12T23:26:01;6.75;;;3.08;;
42666;SDS011;28280;49.646;14.130;2023-03-12T23:36:23;4.82;;;2.70;;
42666;SDS011;28280;49.646;14.130;2023-03-12T23:46:44;5.85;;;2.88;;
42666;SDS011;28280;49.646;14.130;2023-03-12T23:57:05;4.05;;;2.45;;
